San Francisco, CA (94104)

1:39 AM PST on December 20, 2014 (GMT -0800)
Weather Underground HQ | Change Station
CLOSE
Current Station
Personal Weather Station
Location: San Francisco, CA
Elevation: 118 ft
Nearby Weather Stations

Elev 118 ft 37.79 °N, 122.40 °W | Updated 6 seconds ago

Overcast
Overcast
58.0 °F
Feels Like 58.0 °F
N
2.0
Wind Variable Wind from NW
Gusts 4.0 mph

Today
High -- | Low -- °F
--% Chance of Precip.
Yesterday
High -- | Low -- °F
Precip. -- in
7:20 AM 4:53 PM
Waning Crescent, 4% visible
Pressure 30.13 in
Visibility 6.0 miles
Clouds Mostly Cloudy 700 ft
Overcast 1000 ft
Dew Point 58 °F
Humidity 99%
Rainfall 0.00 in
Snow Depth Not available.
UV 0 out of 12
Pollen 2.00 out of 12
Air Quality Not available.
Flu Activity Not available.
METAR KOAK 200853Z 15004KT 6SM -RA BR BKN007 OVC010 13/12 A3013 RMK AO2 RAB0757E00B29 SLP203 P0000 60000 T01330122 58007

More Conditions Fewer Conditions

Pressure 30.13 in
Visibility 6.0 miles
Clouds Mostly Cloudy 700 ft
Overcast 1000 ft
Dew Point 58 °F
Humidity 99%
Rainfall 0.00 in
Snow Depth Not available.
UV 0 out of 12
Pollen 2.00 out of 12
Air Quality Not available.
Flu Activity Not available.
METAR KOAK 200853Z 15004KT 6SM -RA BR BKN007 OVC010 13/12 A3013 RMK AO2 RAB0757E00B29 SLP203 P0000 60000 T01330122 58007

More Conditions Fewer Conditions

10-Day Weather Forecast

Almanac

Astronomy

Dec. 20, 2014 Rise Set
Actual Time
Civil Twilight
Nautical Twilight
Astronomical Twilight
Moon
Length of Visible Light
Length of Day
Tomorrow will be .
, % of the Moon is Illuminated

Today's Extremes

State Highs State Lows

Community

WunderPhotos

Upload Photos

1,779,146 photos uploaded!

WunderBlogs® & News

Nearby

Air Quality

  Air Quality AQ Index Pollutant
Not available.

Snow Depth

Station Depth Elevation

Earthquake Activity

City Distance Mag. Time & Date
Minimum magnitude displayed is 2.5.

Coastal Water Temperatures

Place Temperature

Nearby Weather Stations